Etusivu
METAR-TAF:

METAR-TAF

Lentoasemat :

Gibraltar, Gibraltar

Gibraltarin lentoasema

Leveyspiiri: 36-09N, Pituuspiiri: 005-21W, korkeus merenpinnasta: 5 m

Tämänhetkinen sää

Tämä raportti tehtiin 1 tunti ja 24 minuuttia sitten, kello 19.50 UTC
Tuuli 8 kn idästä
Lämpötila 20°C
Kosteus 88%
Ilmanpaine 1015 hPa
Näkyvyys 10 km tai enemmän

METAR: LXGB 221950Z AUTO 09008KT 9999 // NCD 20/18 Q1015

Aika: 23:14 (21:14 UTC)

Sääennuste

Tämä raportti tehtiin 4 tuntia ja 35 minuuttia sitten, kello 16.39 UTC
Ennuste voimassa 22. päivästä klo 18 UTC - 22. päivään klo 22 UTC
Tuuli 8 kn idästä
Näkyvyys 10 km tai enemmän
Muutamia pilviä 3000 ft:n korkeudessa

TAF: LXGB 221639Z 2218/2222 10008KT 9999 FEW030

Säähavainnot ja -ennusteet yli 4000 lentoasemalta (METAR- ja TAF-raportit).

Käytössä olevat sääasemat on merkitty karttaan keltaisilla ja punaisilla pisteillä.

Aseta hiiri pisteen päälle nähdäksesi sääaseman nimen.

Klikkaa sitten nähdäksesi säähavainnot ja -ennusteet.

Kartan vaihtaminen: klikkaa mustalla rastilla varustettuja vihreitä pisteitä, niin voit zoomata sisään; viivalla varustettua vihreää pistettä, niin voit zoomata ulos tai vihreitä nuolia, niin pääset viereisille kartoille.


METAR-TAF: